Time;durP1;ratioP1;P1;durP2;ratioP2;P2;SDS_P1;SDS_P2;PMS_P1;PMS_P2;Temp;Humidity;BMP_temperature;BMP_pressure;BME280_temperature;BME280_humidity;BME280_pressure;Samples;Min_cycle;Max_cycle;Signal;HPM_P1;HPM_P2
2023/07/04 00:01:10;;;;;;;10.25;4.35;;;;;;;26.30;47.57;96371.03;5036708;28;20104;-27
2023/07/04 00:03:36;;;;;;;11.80;4.75;;;;;;;26.09;48.10;96368.06;5043666;28;20021;-26
2023/07/04 00:06:02;;;;;;;9.30;4.13;;;;;;;26.14;48.11;96360.91;5036646;28;20056;-27
2023/07/04 00:08:29;;;;;;;9.98;4.72;;;;;;;26.10;48.16;96361.22;5036035;28;20426;-27
2023/07/04 00:10:58;;;;;;;9.80;4.43;;;;;;;26.24;47.75;96352.91;5036341;28;20075;-29
2023/07/04 00:13:24;;;;;;;8.10;4.50;;;;;;;26.22;48.05;96361.03;5041898;28;20048;-27
2023/07/04 00:15:51;;;;;;;11.25;4.43;;;;;;;26.23;47.92;96349.38;5038743;28;20025;-28
2023/07/04 00:18:22;;;;;;;9.52;4.15;;;;;;;26.28;47.92;96356.91;5042279;28;20045;-28
2023/07/04 00:20:54;;;;;;;9.90;4.43;;;;;;;26.18;48.56;96343.94;5036875;28;20498;-27
2023/07/04 00:23:24;;;;;;;9.63;4.75;;;;;;;26.12;48.10;96346.78;5036130;28;20029;-26
2023/07/04 00:25:52;;;;;;;7.55;4.70;;;;;;;26.23;47.94;96348.63;5035742;28;20033;-27
2023/07/04 00:28:18;;;;;;;9.63;4.70;;;;;;;26.04;48.63;96341.13;5043371;28;20096;-27
2023/07/04 00:30:43;;;;;;;9.18;4.60;;;;;;;26.07;48.54;96337.28;5036074;28;20113;-27
2023/07/04 00:33:09;;;;;;;9.60;4.80;;;;;;;26.05;48.98;96353.00;5034819;28;20025;-27
2023/07/04 00:35:34;;;;;;;8.80;4.55;;;;;;;25.90;50.35;96358.28;5035858;28;20032;-26
2023/07/04 00:37:59;;;;;;;7.50;4.50;;;;;;;26.16;50.03;96357.59;5035949;28;20017;-27
2023/07/04 00:40:28;;;;;;;10.38;4.85;;;;;;;25.92;50.79;96353.72;5043932;28;20035;-27
2023/07/04 00:43:02;;;;;;;9.63;5.00;;;;;;;25.87;51.26;96362.13;5035892;28;20045;-27
2023/07/04 00:45:28;;;;;;;14.40;5.40;;;;;;;26.12;50.28;96357.91;5036066;28;20033;-28
2023/07/04 00:48:00;;;;;;;10.07;5.13;;;;;;;25.85;50.96;96367.47;5035438;28;20025;-27
2023/07/04 00:50:35;;;;;;;10.48;4.53;;;;;;;25.77;51.04;96367.34;5035683;28;20029;-27
2023/07/04 00:53:08;;;;;;;14.05;5.10;;;;;;;25.89;50.88;96352.00;5036163;28;20083;-27
2023/07/04 00:55:37;;;;;;;9.63;5.13;;;;;;;25.97;50.72;96355.63;5035638;28;20026;-27
2023/07/04 00:58:04;;;;;;;11.70;4.93;;;;;;;25.83;51.43;96356.16;5035463;28;20096;-27
2023/07/04 01:00:31;;;;;;;12.95;5.18;;;;;;;25.77;51.61;96356.22;5035388;28;20025;-27
2023/07/04 01:03:10;;;;;;;9.32;4.93;;;;;;;25.67;52.29;96341.25;5034484;28;20124;-26
2023/07/04 01:05:51;;;;;;;13.15;5.00;;;;;;;25.69;52.14;96347.03;5035411;28;20025;-26
2023/07/04 01:08:46;;;;;;;12.25;5.03;;;;;;;25.66;52.49;96350.84;5035271;28;20052;-27
2023/07/04 01:11:22;;;;;;;12.00;5.82;;;;;;;25.59;52.68;96352.19;5035162;28;20090;-27
2023/07/04 01:13:50;;;;;;;12.63;4.97;;;;;;;25.74;52.56;96352.47;5035411;28;20033;-26
2023/07/04 01:16:18;;;;;;;11.02;5.80;;;;;;;25.69;53.02;96363.69;5035290;28;20024;-28
2023/07/04 01:18:48;;;;;;;9.55;5.32;;;;;;;25.79;52.86;96358.47;5035271;28;20022;-26
2023/07/04 01:21:17;;;;;;;12.90;6.22;;;;;;;25.78;52.62;96357.72;5035674;28;20109;-27
2023/07/04 01:24:10;;;;;;;13.30;5.95;;;;;;;25.69;53.84;96360.91;5035406;28;20029;-28
2023/07/04 01:26:39;;;;;;;18.88;7.15;;;;;;;25.98;53.00;96359.16;5035276;28;20059;-27
2023/07/04 01:29:14;;;;;;;14.27;6.03;;;;;;;25.90;53.35;96352.75;5034772;28;20395;-27
2023/07/04 01:31:46;;;;;;;18.65;7.60;;;;;;;25.85;53.62;96359.88;5034737;28;20075;-26
2023/07/04 01:34:14;;;;;;;21.43;8.00;;;;;;;25.64;54.03;96353.41;5034938;28;20057;-27
2023/07/04 01:36:42;;;;;;;18.48;7.28;;;;;;;25.71;53.96;96347.25;5035018;28;20032;-27
2023/07/04 01:39:14;;;;;;;15.68;6.88;;;;;;;25.58;54.35;96352.72;5041753;28;20383;-27
2023/07/04 01:41:40;;;;;;;;;;;;;;;25.77;53.53;96347.91;5034799;28;20088;-27
2023/07/04 01:44:06;;;;;;;16.80;6.63;;;;;;;25.71;53.79;96353.56;5034795;28;19944;-26
2023/07/04 01:46:34;;;;;;;16.65;7.18;;;;;;;25.70;54.12;96351.31;5042055;28;20025;-27
2023/07/04 01:48:59;;;;;;;14.40;6.85;;;;;;;25.77;53.61;96345.13;5034678;28;20111;-27
2023/07/04 01:51:31;;;;;;;16.13;7.25;;;;;;;25.93;53.10;96343.34;5034950;28;20029;-26
2023/07/04 01:53:57;;;;;;;14.48;7.50;;;;;;;25.83;53.65;96339.47;5034638;28;20018;-27
2023/07/04 01:56:23;;;;;;;14.80;6.82;;;;;;;25.73;53.55;96334.31;5034477;28;20028;-26
2023/07/04 01:58:49;;;;;;;12.75;6.28;;;;;;;25.71;53.63;96342.44;5034357;28;20017;-27
2023/07/04 02:01:14;;;;;;;10.90;5.90;;;;;;;25.77;53.31;96336.78;5034011;28;20017;-27
2023/07/04 02:03:40;;;;;;;12.77;6.28;;;;;;;25.73;53.75;96325.97;5034989;28;20145;-27
2023/07/04 02:06:07;;;;;;;15.90;6.28;;;;;;;25.87;52.85;96337.13;5034400;28;20029;-26
2023/07/04 02:08:32;;;;;;;11.90;6.65;;;;;;;25.84;53.17;96338.94;5034413;28;20044;-27
2023/07/04 02:10:58;;;;;;;12.57;6.82;;;;;;;25.81;53.27;96334.44;5033933;28;20471;-26
2023/07/04 02:13:23;;;;;;;14.70;6.18;;;;;;;25.70;53.37;96329.09;5034204;28;20033;-27
2023/07/04 02:15:49;;;;;;;14.90;6.50;;;;;;;25.63;53.42;96335.25;5041499;28;20033;-27
2023/07/04 02:18:14;;;;;;;13.18;6.68;;;;;;;25.74;53.58;96340.63;5034265;28;20105;-27
2023/07/04 02:20:40;;;;;;;12.32;6.57;;;;;;;25.62;53.59;96339.28;5034094;28;20029;-28
2023/07/04 02:23:06;;;;;;;11.55;5.95;;;;;;;25.82;53.08;96341.50;5034574;28;20471;-27
2023/07/04 02:25:31;;;;;;;14.23;7.05;;;;;;;25.77;53.13;96345.13;5034011;28;20083;-27
2023/07/04 02:27:57;;;;;;;12.43;7.00;;;;;;;25.67;53.16;96336.44;5033873;28;20017;-27
2023/07/04 02:30:22;;;;;;;12.85;6.40;;;;;;;25.58;53.49;96347.19;5033612;28;20459;-26
2023/07/04 02:32:48;;;;;;;14.68;6.68;;;;;;;25.52;53.54;96343.72;5040738;28;20048;-26
2023/07/04 02:35:14;;;;;;;14.98;5.82;;;;;;;25.60;53.36;96339.03;5034219;28;20025;-27
2023/07/04 02:37:40;;;;;;;13.07;6.28;;;;;;;25.55;53.65;96332.31;5033841;28;20057;-27
2023/07/04 02:40:06;;;;;;;12.77;6.03;;;;;;;25.69;53.50;96341.47;5041210;28;20075;-26
2023/07/04 02:42:31;;;;;;;14.93;6.25;;;;;;;25.60;53.67;96339.03;5033538;28;20517;-27
2023/07/04 02:44:57;;;;;;;13.90;6.20;;;;;;;25.63;53.83;96336.00;5039867;28;20012;-27
2023/07/04 02:47:26;;;;;;;14.88;6.00;;;;;;;25.56;53.85;96347.69;5035256;28;20474;-27
2023/07/04 02:49:53;;;;;;;18.30;7.15;;;;;;;25.55;54.01;96354.53;5032297;28;20386;-26
2023/07/04 02:52:20;;;;;;;14.98;6.85;;;;;;;25.47;54.61;96350.84;5033517;28;20033;-27
2023/07/04 02:54:45;;;;;;;16.50;7.13;;;;;;;25.27;54.86;96356.97;5033419;28;20026;-26
2023/07/04 02:57:13;;;;;;;17.15;7.03;;;;;;;25.36;54.80;96360.09;5033201;28;20079;-27
2023/07/04 02:59:39;;;;;;;19.10;7.47;;;;;;;25.55;54.37;96360.09;5041171;28;20021;-27
2023/07/04 03:02:04;;;;;;;13.73;6.50;;;;;;;25.62;54.54;96362.25;5033671;28;20379;-28
2023/07/04 03:04:30;;;;;;;15.30;6.88;;;;;;;25.48;54.98;96368.25;5033846;28;20067;-26
2023/07/04 03:06:55;;;;;;;14.73;6.78;;;;;;;25.67;53.92;96369.03;5033624;28;20024;-26
2023/07/04 03:09:21;;;;;;;16.30;6.75;;;;;;;25.44;54.98;96362.28;5033233;28;20108;-26
2023/07/04 03:11:46;;;;;;;17.73;7.25;;;;;;;25.38;54.83;96365.88;5033765;28;20025;-27
2023/07/04 03:14:12;;;;;;;19.05;7.35;;;;;;;25.44;54.91;96368.59;5033575;28;20029;-26
2023/07/04 03:16:37;;;;;;;17.52;7.40;;;;;;;25.43;55.05;96361.53;5033107;28;20021;-27
2023/07/04 03:19:02;;;;;;;15.27;6.72;;;;;;;25.29;55.37;96366.25;5033460;28;20091;-27
2023/07/04 03:21:28;;;;;;;16.52;7.03;;;;;;;25.45;55.05;96369.34;5033692;28;20072;-27
2023/07/04 03:23:53;;;;;;;17.35;7.20;;;;;;;25.52;54.76;96374.25;5033691;28;20025;-26
2023/07/04 03:26:20;;;;;;;14.00;7.85;;;;;;;25.53;54.98;96370.97;5033707;28;20026;-26
2023/07/04 03:28:45;;;;;;;14.18;7.35;;;;;;;25.54;54.90;96377.28;5037424;28;20545;-28
2023/07/04 03:31:11;;;;;;;16.65;6.90;;;;;;;25.60;54.40;96378.66;5037252;28;20119;-27
2023/07/04 03:33:36;;;;;;;14.02;7.25;;;;;;;25.70;54.38;96373.53;5036996;28;20025;-27
2023/07/04 03:36:02;;;;;;;15.40;7.10;;;;;;;25.64;54.52;96381.19;5037575;28;20017;-26
2023/07/04 03:38:28;;;;;;;13.07;6.38;;;;;;;25.36;54.91;96387.84;5037037;28;20048;-27
2023/07/04 03:40:54;;;;;;;17.08;7.65;;;;;;;25.48;54.95;96384.91;5037116;28;20029;-27
2023/07/04 03:43:19;;;;;;;18.45;6.88;;;;;;;25.57;54.85;96388.06;5036817;28;20399;-26
2023/07/04 03:45:46;;;;;;;16.42;6.47;;;;;;;25.52;55.04;96382.59;5036834;28;20026;-26
2023/07/04 03:48:11;;;;;;;11.35;6.05;;;;;;;25.64;54.69;96381.19;5036886;28;20104;-28
2023/07/04 03:50:38;;;;;;;19.92;7.53;;;;;;;25.62;54.38;96383.72;5044338;28;20455;-26
2023/07/04 03:53:05;;;;;;;14.98;6.80;;;;;;;25.68;54.30;96392.75;5036622;28;20025;-26
2023/07/04 03:55:30;;;;;;;14.98;6.50;;;;;;;25.52;54.63;96402.03;5037025;28;20041;-27
2023/07/04 03:57:56;;;;;;;13.13;6.80;;;;;;;25.46;55.23;96404.16;5036556;28;20018;-27
2023/07/04 04:00:21;;;;;;;15.13;6.07;;;;;;;25.72;54.39;96401.50;5036476;28;20387;-26
2023/07/04 04:02:47;;;;;;;12.45;6.38;;;;;;;25.52;54.69;96402.78;5036916;28;20107;-26
2023/07/04 04:05:12;;;;;;;12.82;6.25;;;;;;;25.33;55.29;96402.81;5037006;28;20029;-27
2023/07/04 04:07:37;;;;;;;11.07;6.38;;;;;;;25.34;55.12;96404.31;5036979;28;20022;-26
2023/07/04 04:10:03;;;;;;;16.02;5.78;;;;;;;25.48;54.75;96407.13;5036356;28;20021;-26
2023/07/04 04:12:29;;;;;;;16.30;6.60;;;;;;;25.33;54.96;96408.38;5036508;28;20044;-26
2023/07/04 04:14:54;;;;;;;17.35;7.05;;;;;;;25.33;55.22;96402.81;5036631;28;20021;-27
2023/07/04 04:17:20;;;;;;;15.18;6.70;;;;;;;25.49;55.16;96408.63;5036414;28;20076;-27
2023/07/04 04:19:45;;;;;;;19.83;7.07;;;;;;;25.55;54.89;96406.53;5036397;28;20460;-26
2023/07/04 04:22:11;;;;;;;16.20;7.10;;;;;;;25.60;54.74;96408.47;5036137;28;20055;-28
2023/07/04 04:24:37;;;;;;;16.38;6.45;;;;;;;25.51;55.32;96408.88;5036421;28;20036;-27
2023/07/04 04:27:08;;;;;;;14.13;6.18;;;;;;;25.51;55.38;96397.75;5036033;28;20029;-26
2023/07/04 04:29:34;;;;;;;14.43;6.47;;;;;;;25.39;55.87;96402.72;5036133;28;20026;-26
2023/07/04 04:32:00;;;;;;;14.40;6.15;;;;;;;25.33;55.91;96391.69;5036124;28;20028;-26
2023/07/04 04:34:26;;;;;;;15.52;6.38;;;;;;;25.47;55.37;96389.00;5043213;28;20033;-27
2023/07/04 04:36:51;;;;;;;18.35;6.55;;;;;;;25.49;55.31;96381.63;5042650;28;20032;-27
2023/07/04 04:39:17;;;;;;;16.40;6.40;;;;;;;25.56;55.40;96374.72;5036519;28;20386;-27
2023/07/04 04:41:43;;;;;;;14.57;7.20;;;;;;;25.36;56.05;96382.31;5035844;28;20049;-27
2023/07/04 04:44:08;;;;;;;13.93;6.60;;;;;;;25.48;55.52;96379.38;5049262;28;20017;-26
2023/07/04 04:46:34;;;;;;;12.57;6.07;;;;;;;25.55;55.77;96376.00;5038826;28;20021;-26
2023/07/04 04:49:03;;;;;;;15.85;6.43;;;;;;;25.61;55.69;96374.66;5039893;28;20067;-26
2023/07/04 04:51:30;;;;;;;13.48;6.30;;;;;;;25.65;55.50;96379.91;5042929;28;20486;-26
2023/07/04 04:53:57;;;;;;;16.67;6.80;;;;;;;25.58;56.11;96378.47;5035815;28;20079;-27
2023/07/04 04:56:23;;;;;;;15.65;6.10;;;;;;;25.47;56.33;96378.63;5035825;28;20030;-26
2023/07/04 04:58:48;;;;;;;11.13;5.90;;;;;;;25.73;55.78;96375.22;5035790;28;20021;-27
2023/07/04 05:01:22;;;;;;;15.38;6.70;;;;;;;25.63;55.87;96374.13;5036006;28;20112;-27
2023/07/04 05:03:55;;;;;;;15.10;7.07;;;;;;;25.66;55.87;96367.53;5043179;28;20021;-26
2023/07/04 05:06:22;;;;;;;;;;;;;;;25.55;56.27;96371.19;5035934;28;20095;-26
2023/07/04 05:08:48;;;;;;;14.07;5.50;;;;;;;25.74;56.11;96371.16;5035178;28;19917;-26
2023/07/04 05:11:14;;;;;;;13.10;6.28;;;;;;;25.85;55.70;96368.22;5035347;28;20155;-26
2023/07/04 05:13:41;;;;;;;16.05;7.03;;;;;;;25.87;55.72;96368.44;5042510;28;20107;-27
2023/07/04 05:16:15;;;;;;;13.85;5.97;;;;;;;25.83;55.47;96347.81;5035900;28;20043;-26
2023/07/04 05:18:42;;;;;;;11.70;6.07;;;;;;;25.74;55.77;96351.72;5035090;28;20022;-26
2023/07/04 05:21:13;;;;;;;14.57;6.28;;;;;;;25.72;55.81;96357.06;5042405;28;20387;-28
2023/07/04 05:23:41;;;;;;;12.43;5.97;;;;;;;25.73;55.52;96364.88;5035016;28;20386;-26
2023/07/04 05:26:09;;;;;;;12.07;5.47;;;;;;;25.71;55.37;96359.13;5036658;28;20136;-26
2023/07/04 05:28:35;;;;;;;11.18;5.85;;;;;;;25.83;55.05;96358.94;5040111;28;20025;-27
2023/07/04 05:31:07;;;;;;;11.38;5.28;;;;;;;25.79;55.42;96356.44;5035199;28;20030;-27
2023/07/04 05:33:33;;;;;;;14.82;6.22;;;;;;;25.91;55.31;96355.00;5035277;28;20056;-26
2023/07/04 05:36:02;;;;;;;12.27;5.70;;;;;;;25.75;55.65;96356.00;5034974;28;20103;-26
2023/07/04 05:38:28;;;;;;;13.20;6.65;;;;;;;25.67;55.55;96353.09;5041888;28;20017;-26
2023/07/04 05:40:53;;;;;;;14.55;6.10;;;;;;;25.72;55.47;96354.28;5042540;28;20040;-27
2023/07/04 05:43:18;;;;;;;15.60;5.43;;;;;;;25.82;55.19;96360.97;5034913;28;20044;-27
2023/07/04 05:45:48;;;;;;;12.15;5.38;;;;;;;25.78;55.38;96360.50;5034691;28;20040;-28
2023/07/04 05:48:13;;;;;;;15.60;6.68;;;;;;;25.90;55.47;96370.16;5034749;28;20034;-28
2023/07/04 05:50:58;;;;;;;14.43;5.75;;;;;;;25.83;55.65;96365.22;5034012;28;20120;-27
2023/07/04 05:53:32;;;;;;;10.82;5.20;;;;;;;25.79;55.91;96364.03;5034696;28;20025;-27
2023/07/04 05:56:06;;;;;;;13.35;6.03;;;;;;;25.90;55.60;96364.59;5034607;28;20021;-27
2023/07/04 05:58:32;;;;;;;12.88;5.75;;;;;;;25.89;55.66;96363.09;5034389;28;20017;-27
2023/07/04 06:01:07;;;;;;;11.45;5.28;;;;;;;25.93;55.23;96358.00;5034187;28;20028;-28
2023/07/04 06:03:33;;;;;;;12.05;5.13;;;;;;;25.87;54.92;96364.91;5035152;28;20026;-27
2023/07/04 06:05:59;;;;;;;12.75;5.88;;;;;;;25.95;54.74;96374.88;5033999;28;20494;-29
2023/07/04 06:08:25;;;;;;;10.45;5.22;;;;;;;25.96;54.62;96376.38;5034453;28;20027;-27
2023/07/04 06:11:05;;;;;;;11.90;6.03;;;;;;;25.92;55.04;96378.72;5034518;28;20025;-26
2023/07/04 06:13:30;;;;;;;9.25;5.10;;;;;;;25.84;55.29;96383.38;5034478;28;20029;-27
2023/07/04 06:15:58;;;;;;;11.20;5.45;;;;;;;25.72;55.83;96376.50;5033980;28;20451;-29
2023/07/04 06:18:23;;;;;;;10.73;5.15;;;;;;;25.90;55.22;96386.06;5034281;28;20053;-26
2023/07/04 06:20:49;;;;;;;12.48;5.88;;;;;;;25.99;55.25;96369.00;5034083;28;20104;-27
2023/07/04 06:23:15;;;;;;;12.50;5.65;;;;;;;25.82;55.75;96379.66;5034469;28;20086;-26
2023/07/04 06:25:40;;;;;;;14.68;5.38;;;;;;;25.62;56.04;96383.72;5034075;28;20036;-27
2023/07/04 06:28:06;;;;;;;12.55;5.60;;;;;;;25.90;55.58;96392.38;5033989;28;20033;-27
2023/07/04 06:30:32;;;;;;;9.38;5.18;;;;;;;25.89;55.47;96390.88;5033667;28;20021;-27
2023/07/04 06:32:57;;;;;;;11.85;5.10;;;;;;;25.92;55.03;96395.38;5034008;28;20109;-26
2023/07/04 06:35:23;;;;;;;14.00;5.63;;;;;;;25.75;55.20;96392.88;5033630;28;20029;-27
2023/07/04 06:37:49;;;;;;;13.23;5.60;;;;;;;26.02;54.35;96399.25;5033667;28;20025;-27
2023/07/04 06:40:14;;;;;;;11.82;5.13;;;;;;;25.87;55.03;96401.78;5040914;28;20079;-26
2023/07/04 06:42:40;;;;;;;7.78;4.57;;;;;;;25.93;54.76;96401.69;5033862;28;20455;-27
2023/07/04 06:45:07;;;;;;;13.50;5.57;;;;;;;25.85;55.06;96403.56;5033845;28;20036;-27
2023/07/04 06:47:32;;;;;;;10.88;5.00;;;;;;;25.89;54.74;96402.00;5040663;28;20072;-27
2023/07/04 06:49:57;;;;;;;9.20;4.80;;;;;;;26.00;54.24;96407.38;5033504;28;20021;-26
2023/07/04 06:52:23;;;;;;;8.98;4.82;;;;;;;25.96;54.68;96395.84;5033907;28;20450;-26
2023/07/04 06:54:50;;;;;;;10.25;4.38;;;;;;;25.92;54.34;96406.50;5037564;28;20021;-27
2023/07/04 06:57:16;;;;;;;11.90;4.75;;;;;;;25.85;54.16;96400.81;5037192;28;20017;-27
2023/07/04 06:59:44;;;;;;;9.70;4.90;;;;;;;25.96;52.94;96401.41;5033191;28;20013;-27
2023/07/04 07:02:12;;;;;;;8.68;4.07;;;;;;;26.03;53.11;96394.44;5032458;28;20426;-28
2023/07/04 07:04:37;;;;;;;10.43;4.68;;;;;;;25.87;53.78;96404.56;5033942;28;20029;-28
2023/07/04 07:07:05;;;;;;;10.85;4.70;;;;;;;25.90;54.33;96399.97;5033246;28;20097;-27
2023/07/04 07:09:38;;;;;;;12.00;4.93;;;;;;;25.70;54.93;96401.31;5040318;28;20032;-27
2023/07/04 07:12:04;;;;;;;9.10;4.50;;;;;;;25.82;54.52;96407.44;5033427;28;20540;-27
2023/07/04 07:14:29;;;;;;;15.77;5.18;;;;;;;25.96;53.95;96401.41;5033117;28;20391;-27
2023/07/04 07:16:58;;;;;;;8.00;4.50;;;;;;;25.92;54.12;96420.41;5033112;28;20022;-27
2023/07/04 07:19:25;;;;;;;9.93;4.53;;;;;;;25.96;54.08;96418.06;5033051;28;20025;-26
2023/07/04 07:21:51;;;;;;;12.95;4.32;;;;;;;25.95;53.39;96422.13;5041159;28;20052;-26
2023/07/04 07:24:16;;;;;;;8.75;4.15;;;;;;;25.90;54.12;96411.84;5033240;28;20033;-27
2023/07/04 07:26:42;;;;;;;10.30;4.70;;;;;;;25.82;54.43;96415.78;5033082;28;20017;-26
2023/07/04 07:29:07;;;;;;;11.40;4.85;;;;;;;25.96;54.08;96418.06;5033046;28;20072;-27
2023/07/04 07:31:34;;;;;;;9.73;4.85;;;;;;;25.98;54.08;96414.72;5032995;28;20025;-27
2023/07/04 07:33:59;;;;;;;9.63;4.88;;;;;;;25.91;54.25;96413.34;5033367;28;20032;-26
2023/07/04 07:36:30;;;;;;;10.25;4.47;;;;;;;25.87;53.96;96415.66;5033360;28;20109;-27
2023/07/04 07:38:56;;;;;;;11.55;4.63;;;;;;;25.82;53.89;96401.88;5033709;28;20108;-26
2023/07/04 07:41:26;;;;;;;9.23;4.32;;;;;;;26.17;52.55;96411.91;5033001;28;20075;-27
2023/07/04 07:43:52;;;;;;;9.73;4.38;;;;;;;25.83;52.88;96412.47;5033120;28;20029;-29
2023/07/04 07:46:18;;;;;;;8.93;4.20;;;;;;;25.97;53.15;96413.22;5033449;28;20022;-26
2023/07/04 07:48:45;;;;;;;9.40;4.20;;;;;;;26.06;52.03;96416.38;5033148;28;20025;-27
2023/07/04 07:51:12;;;;;;;10.70;4.22;;;;;;;26.30;51.92;96414.75;5033484;28;20013;-26
2023/07/04 07:53:40;;;;;;;7.32;4.35;;;;;;;26.23;52.34;96418.13;5033131;28;20429;-26
2023/07/04 07:56:08;;;;;;;8.70;4.20;;;;;;;26.38;51.87;96418.41;5032795;28;20085;-26
2023/07/04 07:58:34;;;;;;;9.82;4.00;;;;;;;26.32;51.95;96421.28;5032841;28;20071;-26
2023/07/04 08:01:00;;;;;;;6.28;3.97;;;;;;;26.12;52.11;96419.81;5031502;28;20479;-26
2023/07/04 08:03:27;;;;;;;10.18;4.38;;;;;;;26.50;51.17;96411.34;5033350;28;20041;-26
2023/07/04 08:05:52;;;;;;;6.80;3.95;;;;;;;26.13;52.19;96415.00;5039926;28;20021;-26
2023/07/04 08:08:18;;;;;;;7.43;4.30;;;;;;;26.23;51.38;96426.44;5033035;28;20494;-27
2023/07/04 08:10:43;;;;;;;7.68;3.85;;;;;;;26.60;50.78;96420.00;5032997;28;20386;-26
2023/07/04 08:13:10;;;;;;;11.45;4.43;;;;;;;26.39;50.41;96422.69;5034398;28;20024;-26
2023/07/04 08:15:36;;;;;;;9.32;4.50;;;;;;;26.46;50.85;96416.47;5036206;28;20035;-26
2023/07/04 08:18:07;;;;;;;7.13;3.72;;;;;;;26.44;48.77;96410.72;5043940;28;20013;-26
2023/07/04 08:20:32;;;;;;;8.25;3.65;;;;;;;26.33;48.99;96408.88;5036739;28;20340;-26
2023/07/04 08:22:58;;;;;;;9.00;3.70;;;;;;;26.49;49.42;96407.06;5036100;28;20033;-26
2023/07/04 08:25:23;;;;;;;10.70;4.05;;;;;;;26.47;49.75;96413.16;5036234;28;20025;-26
2023/07/04 08:27:49;;;;;;;10.52;4.35;;;;;;;26.39;50.35;96401.19;5036112;28;20475;-26
2023/07/04 08:30:14;;;;;;;7.50;4.13;;;;;;;26.59;50.02;96412.94;5036522;28;20022;-27
2023/07/04 08:32:40;;;;;;;8.35;4.55;;;;;;;26.57;49.73;96413.50;5036017;28;20101;-26
2023/07/04 08:35:05;;;;;;;11.18;4.65;;;;;;;26.49;49.75;96409.84;5036192;28;20033;-26
2023/07/04 08:37:31;;;;;;;8.32;3.85;;;;;;;26.66;50.05;96421.44;5035811;28;20368;-25
2023/07/04 08:39:57;;;;;;;8.38;4.10;;;;;;;26.68;49.74;96421.66;5035892;28;20021;-26
2023/07/04 08:42:26;;;;;;;6.25;3.58;;;;;;;26.69;49.73;96431.50;5035726;28;20418;-26
2023/07/04 08:44:52;;;;;;;6.70;3.80;;;;;;;26.50;49.36;96425.25;5036880;28;20028;-26
2023/07/04 08:47:25;;;;;;;7.53;4.20;;;;;;;26.72;48.86;96429.66;5035992;28;20109;-27
2023/07/04 08:50:19;;;;;;;5.68;3.65;;;;;;;26.83;48.62;96426.66;5036230;28;20464;-26
2023/07/04 08:52:55;;;;;;;7.60;3.67;;;;;;;26.69;49.00;96425.94;5035653;28;20079;-26
2023/07/04 08:55:23;;;;;;;6.95;3.38;;;;;;;26.81;48.34;96430.00;5035779;28;20049;-26
2023/07/04 08:57:58;;;;;;;5.68;3.80;;;;;;;26.67;48.28;96428.50;5036011;28;20414;-26
2023/07/04 09:00:36;;;;;;;5.60;3.58;;;;;;;26.65;48.50;96425.50;5035711;28;20029;-26
2023/07/04 09:03:29;;;;;;;6.40;3.80;;;;;;;26.74;48.07;96422.28;5035503;28;20031;-26
2023/07/04 09:06:04;;;;;;;6.75;3.70;;;;;;;26.78;47.81;96425.50;5042647;28;20017;-26
2023/07/04 09:08:35;;;;;;;6.97;3.40;;;;;;;26.71;48.38;96419.81;5035380;28;20044;-26
2023/07/04 09:11:08;;;;;;;5.57;3.15;;;;;;;26.82;47.60;96417.59;5035520;28;20029;-26
2023/07/04 09:13:44;;;;;;;;;;;;;;;26.97;47.55;96421.88;5043011;28;20108;-26
2023/07/04 09:16:14;;;;;;;5.20;3.33;;;;;;;26.80;48.05;96425.72;5035128;28;19916;-26
2023/07/04 09:18:49;;;;;;;7.40;3.33;;;;;;;26.94;47.82;96422.97;5035342;28;20152;-27
2023/07/04 09:21:17;;;;;;;6.53;3.40;;;;;;;26.97;47.84;96428.19;5034940;28;20044;-27
2023/07/04 09:23:45;;;;;;;6.43;3.22;;;;;;;26.82;48.10;96420.38;5034777;28;20486;-26
2023/07/04 09:26:15;;;;;;;5.25;3.40;;;;;;;27.02;48.00;96421.00;5037482;28;20125;-26
2023/07/04 09:28:43;;;;;;;8.57;3.58;;;;;;;26.88;47.47;96419.50;5039089;28;20025;-26
2023/07/04 09:31:17;;;;;;;9.70;3.60;;;;;;;27.02;46.99;96423.78;5035181;28;20025;-26
2023/07/04 09:33:44;;;;;;;6.45;3.83;;;;;;;26.81;46.82;96430.00;5034783;28;20025;-26
2023/07/04 09:36:10;;;;;;;9.30;3.83;;;;;;;26.81;47.41;96432.78;5034735;28;20077;-26
2023/07/04 09:38:55;;;;;;;5.35;3.33;;;;;;;26.78;46.97;96422.72;5034886;28;20024;-26
2023/07/04 09:41:27;;;;;;;8.05;3.30;;;;;;;26.93;46.84;96427.78;5042435;28;20083;-26
2023/07/04 09:44:28;;;;;;;8.55;3.70;;;;;;;27.11;46.65;96431.69;5035128;28;20092;-26
2023/07/04 09:46:54;;;;;;;7.97;3.45;;;;;;;26.98;46.12;96435.25;5034715;28;20029;-26
2023/07/04 09:49:24;;;;;;;7.82;3.47;;;;;;;26.96;46.67;96432.25;5034859;28;20021;-28
2023/07/04 09:52:04;;;;;;;7.90;3.60;;;;;;;27.00;46.41;96440.28;5047947;28;20013;-26
2023/07/04 09:54:38;;;;;;;7.93;3.63;;;;;;;26.88;46.19;96428.59;5034945;28;20034;-26
2023/07/04 09:57:25;;;;;;;7.82;3.10;;;;;;;26.96;46.72;96431.50;5034947;28;20573;-26
2023/07/04 09:59:53;;;;;;;6.78;3.45;;;;;;;27.12;46.62;96431.16;5034577;28;20028;-26
2023/07/04 10:02:25;;;;;;;5.75;3.35;;;;;;;27.11;47.12;96426.13;5034319;28;20041;-26
2023/07/04 10:04:52;;;;;;;5.85;3.50;;;;;;;27.00;46.68;96426.38;5034296;28;20033;-26
2023/07/04 10:07:23;;;;;;;5.97;3.40;;;;;;;27.13;46.88;96424.31;5034129;28;20116;-26
2023/07/04 10:10:12;;;;;;;6.90;3.40;;;;;;;27.01;47.08;96427.88;5034436;28;20017;-26
2023/07/04 10:12:45;;;;;;;6.18;3.15;;;;;;;27.05;47.07;96422.72;5034531;28;20407;-26
2023/07/04 10:15:23;;;;;;;6.18;3.75;;;;;;;27.05;47.08;96423.47;5034260;28;20075;-28
2023/07/04 10:17:48;;;;;;;5.22;3.30;;;;;;;27.01;46.72;96419.50;5034269;28;20029;-26
2023/07/04 10:20:14;;;;;;;8.38;3.80;;;;;;;26.98;46.75;96426.16;5033989;28;20043;-26
2023/07/04 10:22:47;;;;;;;6.85;3.58;;;;;;;27.07;46.82;96434.84;5034264;28;20375;-26
2023/07/04 10:25:19;;;;;;;4.97;3.45;;;;;;;27.09;46.76;96432.25;5041316;28;20021;-26
2023/07/04 10:27:48;;;;;;;5.35;3.40;;;;;;;27.12;46.75;96433.94;5034060;28;20032;-26
2023/07/04 10:30:19;;;;;;;7.47;3.70;;;;;;;27.17;46.71;96435.88;5034355;28;20045;-26
2023/07/04 10:32:56;;;;;;;6.00;3.30;;;;;;;27.12;47.22;96433.19;5033805;28;20063;-26
2023/07/04 10:35:27;;;;;;;6.65;3.53;;;;;;;27.25;47.13;96427.63;5041365;28;20033;-26
2023/07/04 10:37:59;;;;;;;7.22;3.63;;;;;;;27.10;47.01;96424.63;5033807;28;20021;-26
2023/07/04 10:40:27;;;;;;;9.82;3.45;;;;;;;27.17;46.52;96421.97;5034164;28;20036;-26
2023/07/04 10:42:52;;;;;;;8.25;3.47;;;;;;;27.15;46.82;96426.56;5033848;28;20124;-26
2023/07/04 10:45:19;;;;;;;6.18;3.47;;;;;;;27.22;46.75;96425.16;5034324;28;20113;-26
2023/07/04 10:47:47;;;;;;;7.43;3.45;;;;;;;27.18;47.00;96419.94;5033839;28;20049;-26
2023/07/04 10:50:13;;;;;;;8.07;3.58;;;;;;;27.27;46.55;96425.06;5033867;28;20063;-26
2023/07/04 10:52:47;;;;;;;6.20;3.47;;;;;;;27.25;46.88;96424.84;5048049;28;20033;-27
2023/07/04 10:55:18;;;;;;;9.77;3.80;;;;;;;27.35;46.35;96416.78;5033603;28;20029;-26
2023/07/04 10:57:56;;;;;;;6.85;3.25;;;;;;;27.32;46.78;96413.06;5040849;28;20036;-26
2023/07/04 11:00:35;;;;;;;8.95;3.85;;;;;;;27.29;46.66;96418.94;5033542;28;20021;-26
2023/07/04 11:03:08;;;;;;;5.70;3.90;;;;;;;27.31;46.99;96411.56;5033990;28;20025;-26
2023/07/04 11:05:39;;;;;;;8.18;3.50;;;;;;;27.32;46.63;96410.28;5033630;28;20018;-26
2023/07/04 11:08:08;;;;;;;8.05;3.70;;;;;;;27.27;47.20;96411.13;5033282;28;20017;-26
2023/07/04 11:10:41;;;;;;;7.15;4.00;;;;;;;27.31;46.86;96416.38;5033708;28;20454;-27
2023/07/04 11:13:07;;;;;;;9.03;3.73;;;;;;;27.40;46.80;96415.91;5033879;28;20410;-26
2023/07/04 11:15:38;;;;;;;6.25;3.53;;;;;;;27.38;47.03;96410.13;5033598;28;20770;-26
2023/07/04 11:18:05;;;;;;;9.15;3.40;;;;;;;27.41;47.11;96407.03;5042922;28;20087;-26
2023/07/04 11:20:40;;;;;;;6.15;3.50;;;;;;;27.44;46.39;96403.16;5037621;28;20029;-27
2023/07/04 11:23:14;;;;;;;7.03;3.85;;;;;;;27.40;46.59;96411.09;5033270;28;20017;-26
2023/07/04 11:25:42;;;;;;;7.10;3.65;;;;;;;27.42;46.57;96411.31;5033122;28;20024;-26
2023/07/04 11:28:14;;;;;;;6.25;3.67;;;;;;;27.43;46.79;96401.66;5032911;28;20026;-27
2023/07/04 11:30:41;;;;;;;7.55;3.67;;;;;;;27.54;46.81;96403.44;5033145;28;20029;-26
2023/07/04 11:33:08;;;;;;;6.75;3.80;;;;;;;27.48;46.85;96402.81;5040125;28;20079;-26
2023/07/04 11:35:36;;;;;;;5.72;3.63;;;;;;;27.46;46.52;96400.56;5032983;28;20025;-28